Flight Track Log - Related Links

Times and Time Zones

All times are in EST time to prevent confusion due to time zone crossing. See the UCA3599 flight status page for this flight to view local times or setup timezone preferences in your user account.

Time Position Orientation Groundspeed Altitude Reporting Facility
EST Latitude Longitude Course Direction KTS MPH feet Rate Location/Type
Fri 06:14:56 AM 42.1833 -76.0378 208° Southwest 253 291 4,100  Level New York Center
Fri 06:15:57 AM 42.1400 -76.0761 213° Southwest 248 285 5,800 1,525 Climbing New York Center
Fri 06:16:58 AM 42.1008 -76.1122 214° Southwest 214 246 7,200 1,475 Climbing New York Center
Fri 06:17:55 AM 42.0597 -76.1481 213° Southwest 190 219 8,700 1,590 Climbing New York Center
Fri 06:18:55 AM 42.0119 -76.1914 214° Southwest 190 219 10,300 1,289 Climbing New York Center
Fri 06:19:56 AM 41.9750 -76.2247 214° Southwest 182 209 11,300 836 Climbing New York Center
Fri 06:20:00 AM 41.7244 -76.2093 208° Southwest  Level Estimated
Fri 06:20:57 AM 41.9275 -76.2653 212° Southwest 189 217 12,000  Level New York Center
Fri 06:21:58 AM 41.8711 -76.3136 213° Southwest 209 241 13,000 1,000 Climbing New York Center
Fri 06:22:57 AM 41.8192 -76.3539 210° Southwest 222 255 14,000 1,077 Climbing New York Center
Fri 06:23:55 AM 41.7597 -76.3767 196° South 222 255 15,100 1,000 Climbing New York Center
Fri 06:24:57 AM 41.7067 -76.3972 196° South 222 255 16,000 439 Climbing New York Center
Fri 06:25:58 AM 41.6408 -76.4278 199° South 234 269 16,000  Level New York Center
Fri 06:26:57 AM 41.5731 -76.4525 195° South 248 285 16,000  Level New York Center
Fri 06:27:55 AM 41.5047 -76.4828 198° South 253 291 16,000  Level New York Center
Fri 06:28:57 AM 41.4414 -76.5050 195° South 253 291 16,000  Level New York Center
Fri 06:29:57 AM 41.3731 -76.5381 200° South 258 297 16,000  Level New York Center
Fri 06:30:57 AM 41.2967 -76.5672 196° South 263 303 16,000  Level New York Center
Fri 06:31:58 AM 41.2264 -76.5972 198° South 263 303 16,000  Level New York Center
Fri 06:32:56 AM 41.1564 -76.6242 196° South 271 312 16,000  Level New York Center
Fri 06:33:57 AM 41.0925 -76.6517 198° South 271 312 16,000  Level New York Center
Fri 06:34:55 AM 41.0158 -76.6836 197° South 271 312 16,000  Level New York Center
Fri 06:35:57 AM 40.9539 -76.7139 200° South 271 312 16,000  Level New York Center
Fri 06:36:57 AM 40.8753 -76.7456 197° South 271 312 16,000  Level New York Center
Fri 06:37:56 AM 40.8136 -76.7703 197° South 277 319 16,000  Level New York Center
Fri 06:38:56 AM 40.7431 -76.8025 199° South 270 311 16,000  Level New York Center
Fri 06:39:58 AM 40.6644 -76.8311 195° South 270 311 16,000  Level New York Center
Fri 06:40:55 AM 40.6008 -76.8556 196° South 270 311 16,000  Level New York Center
Fri 06:41:55 AM 40.5219 -76.8897 198° South 275 316 16,000  Level New York Center
Fri 06:42:56 AM 40.4581 -76.9139 196° South 275 316 16,000 -298 Level New York Center
Fri 06:43:56 AM 40.3878 -76.9431 198° South 275 316 15,400 -750 Descending New York Center
Fri 06:46:08 AM 40.2167 -77.0167 198° South 278 320 13,600 -938 Descending Potomac TRACON
Fri 06:47:08 AM 40.1500 -77.0333 191° South 272 313 12,400 -1,350 Descending Potomac TRACON
Fri 06:48:08 AM 40.0833 -77.0667 201° Southwest 250 288 10,900 -1,526 Descending Potomac TRACON
Fri 06:49:02 AM 40.0167 -77.0833 191° South 240 276 9,500 -1,046 Descending Potomac TRACON
Fri 06:49:57 AM 39.9667 -77.1167 207° Southwest 225 259 9,000 -261 Descending Potomac TRACON
Fri 06:50:57 AM 39.9000 -77.1333 191° South 231 266 9,000 -56 Level Potomac TRACON
Fri 06:51:45 AM 39.8500 -77.1500 194° South 233 268 8,900 -333 Descending Potomac TRACON
Fri 06:52:45 AM 39.8000 -77.2000 218° Southwest 237 273 8,400 -470 Descending Potomac TRACON
Fri 06:53:40 AM 39.7500 -77.2500 218° Southwest 245 282 8,000 -209 Descending Potomac TRACON
Fri 06:54:40 AM 39.7000 -77.2833 207° Southwest 240 276 8,000 -95 Level Potomac TRACON
Fri 06:55:46 AM 39.6167 -77.3333 205° Southwest 246 283 7,800 -446 Descending Potomac TRACON
Fri 06:56:41 AM 39.5667 -77.3500 194° South 260 299 7,100 -417 Descending Potomac TRACON
Fri 06:57:41 AM 39.4833 -77.3500 180° South 239 275 7,000 -50 Descending Potomac TRACON
Fri 06:58:41 AM 39.4167 -77.3667 191° South 246 283 7,000 -313 Level Potomac TRACON
Fri 06:59:36 AM 39.3667 -77.3667 180° South 249 287 6,400 -835 Descending Potomac TRACON
Fri 07:00:36 AM 39.3000 -77.3667 180° South 243 280 5,400 -950 Descending Potomac TRACON
Fri 07:01:36 AM 39.2333 -77.3667 180° South 238 274 4,500 -694 Descending Potomac TRACON
Fri 07:02:37 AM 39.1667 -77.3500 169° South 242 278 4,000 -261 Descending Potomac TRACON
Fri 07:03:31 AM 39.1000 -77.3500 180° South 241 277 4,000  Level Potomac TRACON
Fri 07:04:32 AM 39.0333 -77.3500 180° South 246 283 4,000  Level Potomac TRACON
Fri 07:05:32 AM 38.9667 -77.3500 180° South 248 285 4,000  Level Potomac TRACON
Fri 07:06:32 AM 38.9000 -77.3500 180° South 221 254 4,000 -350 Level Potomac TRACON
Fri 07:07:32 AM 38.8500 -77.3667 195° South 194 223 3,300 -744 Descending Potomac TRACON
Fri 07:08:33 AM 38.8000 -77.3833 195° South 186 214 2,500 -744 Descending Potomac TRACON
Fri 07:09:33 AM 38.8167 -77.4333 293° West 161 185 1,800 -500 Descending Potomac TRACON
Fri 07:10:33 AM 38.8667 -77.4333 360° North 158 182 1,500 -550 Descending Potomac TRACON
Fri 07:11:33 AM 38.9000 -77.4333 360° North 122 140 700 -800 Descending Potomac TRACON
Fri 07:13:00 AM 38.9333 -77.4500 349° North  Level FlightAware Approximate
Fri 07:20:00 AM 38.9474 -77.4599 349° North  Level Estimated

Login

Don't have an account? Register now (free) for customized features, flight alerts, and more!